createdAt,value
2018-10-04T00:02:18.754Z,97049.85
2018-10-04T00:04:48.708Z,97052.08
2018-10-04T00:07:18.490Z,97055.66
2018-10-04T00:09:48.290Z,97058.37
2018-10-04T00:12:18.072Z,97063.17
2018-10-04T00:14:47.842Z,97060.63
2018-10-04T00:17:17.648Z,97060.36
2018-10-04T00:19:47.411Z,97061.98
2018-10-04T00:22:17.220Z,97064.14
2018-10-04T00:24:47.045Z,97064.21
2018-10-04T00:27:16.802Z,97066.34
2018-10-04T00:29:47.458Z,97058.31
2018-10-04T00:32:17.273Z,97056.75
2018-10-04T00:34:47.101Z,97057.23
2018-10-04T00:37:16.870Z,97048.08
2018-10-04T00:39:46.668Z,97047.55
2018-10-04T00:42:16.558Z,97047.77
2018-10-04T00:44:46.370Z,97043.89
2018-10-04T00:47:17.158Z,97044.47
2018-10-04T00:49:49.298Z,97043.69
2018-10-04T00:52:19.111Z,97032.80
2018-10-04T00:54:48.986Z,97035.34
2018-10-04T00:57:18.786Z,97033.00
2018-10-04T00:59:48.555Z,97025.41
2018-10-04T01:02:18.307Z,97025.56
2018-10-04T01:04:48.111Z,97032.77
2018-10-04T01:07:18.001Z,97038.59
2018-10-04T01:09:47.767Z,97035.52
2018-10-04T01:12:17.560Z,97029.32
2018-10-04T01:14:47.345Z,97026.89
2018-10-04T01:17:17.148Z,97031.26
2018-10-04T01:19:47.203Z,97034.27
2018-10-04T01:22:17.041Z,97024.77
2018-10-04T01:24:46.884Z,97022.67
2018-10-04T01:27:16.661Z,97018.94
2018-10-04T01:29:46.579Z,97015.23
2018-10-04T01:32:16.371Z,97012.80
2018-10-04T01:34:46.147Z,97018.94
2018-10-04T01:37:15.951Z,97021.86
2018-10-04T01:39:45.771Z,97022.38
2018-10-04T01:42:15.691Z,97018.94
2018-10-04T01:44:45.467Z,97022.06
2018-10-04T01:47:15.249Z,97021.21
2018-10-04T01:49:45.045Z,97019.85
2018-10-04T01:52:14.936Z,97023.84
2018-10-04T01:54:44.725Z,97019.00
2018-10-04T01:57:14.511Z,97024.67
2018-10-04T01:59:44.296Z,97020.13
2018-10-04T02:02:14.088Z,97022.23
2018-10-04T02:04:43.897Z,97022.76
2018-10-04T02:07:13.847Z,97018.25
2018-10-04T02:09:43.815Z,97021.02
2018-10-04T02:12:13.602Z,97020.78
2018-10-04T02:14:43.391Z,97021.19
2018-10-04T02:17:13.203Z,97021.10
2018-10-04T02:19:43.037Z,97016.41
2018-10-04T02:22:12.817Z,97007.47
2018-10-04T02:24:42.646Z,97009.05
2018-10-04T02:27:12.582Z,97007.97
2018-10-04T02:29:42.407Z,97010.72
2018-10-04T02:32:12.211Z,97003.77
2018-10-04T02:34:42.162Z,97002.59
2018-10-04T02:37:11.912Z,97002.49
2018-10-04T02:39:41.750Z,97001.27
2018-10-04T02:42:11.506Z,97004.91
2018-10-04T02:44:41.265Z,96998.16
2018-10-04T02:47:11.180Z,96999.88
2018-10-04T02:49:40.961Z,96999.62
2018-10-04T02:52:10.768Z,96998.69
2018-10-04T02:54:44.624Z,96990.47
2018-10-04T02:57:14.424Z,96991.73
2018-10-04T02:59:44.184Z,96995.67
2018-10-04T03:02:13.940Z,96993.13
2018-10-04T03:04:43.715Z,96995.80
2018-10-04T03:07:13.566Z,96991.33
2018-10-04T03:09:43.332Z,96995.64
2018-10-04T03:12:13.091Z,96996.63
2018-10-04T03:14:42.830Z,96996.99
2018-10-04T03:17:12.583Z,96998.35
2018-10-04T03:19:42.375Z,96993.12
2018-10-04T03:22:12.314Z,96996.09
2018-10-04T03:24:42.081Z,96991.75
2018-10-04T03:27:11.834Z,96990.15
2018-10-04T03:29:41.618Z,96985.98
2018-10-04T03:32:11.519Z,96976.34
2018-10-04T03:34:41.508Z,96982.61
2018-10-04T03:37:11.345Z,96978.06
2018-10-04T03:39:41.124Z,96976.91
2018-10-04T03:42:10.848Z,96969.18
2018-10-04T03:44:40.688Z,96979.28
2018-10-04T03:47:10.502Z,96979.62
2018-10-04T03:49:40.256Z,96986.21
2018-10-04T03:52:10.123Z,96982.56
2018-10-04T03:54:39.917Z,96986.21
2018-10-04T03:57:09.640Z,96986.14
2018-10-04T03:59:39.374Z,96990.02
2018-10-04T04:02:09.117Z,96991.14
2018-10-04T04:04:39.021Z,96989.05
2018-10-04T04:07:08.828Z,96990.33
2018-10-04T04:09:38.636Z,96983.05
2018-10-04T04:12:08.800Z,96979.36
2018-10-04T04:14:38.630Z,96984.88
2018-10-04T04:17:08.559Z,96981.66
2018-10-04T04:19:38.368Z,96983.81
2018-10-04T04:22:08.310Z,96977.11
2018-10-04T04:24:38.611Z,96982.17
2018-10-04T04:27:08.414Z,96981.41
2018-10-04T04:29:38.274Z,96979.40
2018-10-04T04:32:08.060Z,96975.75
2018-10-04T04:34:37.841Z,96975.66
2018-10-04T04:37:07.641Z,96977.47
2018-10-04T04:39:37.448Z,96976.31
2018-10-04T04:42:07.340Z,96982.45
2018-10-04T04:44:37.155Z,96976.92
2018-10-04T04:47:07.376Z,96982.36
2018-10-04T04:49:37.356Z,96977.25
2018-10-04T04:52:07.373Z,96970.53
2018-10-04T04:55:20.329Z,96970.30
2018-10-04T04:57:51.693Z,96972.48
2018-10-04T05:00:22.742Z,96973.28
2018-10-04T05:02:53.076Z,96970.61
2018-10-04T05:05:23.500Z,96971.47
2018-10-04T05:07:54.806Z,96968.89
2018-10-04T05:10:25.310Z,96965.73
2018-10-04T05:12:55.951Z,96964.95
2018-10-04T05:15:25.986Z,96968.97
2018-10-04T05:17:55.871Z,96966.90
2018-10-04T05:20:25.677Z,96965.73
2018-10-04T05:22:55.506Z,96962.40
2018-10-04T05:25:25.426Z,96956.16
2018-10-04T05:27:55.237Z,96963.88
2018-10-04T05:30:25.158Z,96969.31
2018-10-04T05:32:55.083Z,96972.91
2018-10-04T05:35:24.882Z,96973.91
2018-10-04T05:37:54.932Z,96971.58
2018-10-04T05:40:24.776Z,96975.32
2018-10-04T05:42:54.621Z,96978.60
2018-10-04T05:45:24.515Z,96979.73
2018-10-04T05:47:54.476Z,96981.65
2018-10-04T05:50:24.259Z,96983.06
2018-10-04T05:52:54.764Z,96972.98
2018-10-04T05:55:24.730Z,96982.87
2018-10-04T05:57:54.530Z,96980.80
2018-10-04T06:00:37.090Z,96980.20
2018-10-04T06:03:07.092Z,96979.82
2018-10-04T06:05:37.042Z,96985.83
2018-10-04T06:08:07.055Z,96981.52
2018-10-04T06:10:37.262Z,96977.95
2018-10-04T06:13:07.139Z,96979.73
2018-10-04T06:15:37.571Z,96977.39
2018-10-04T06:18:07.626Z,96967.59
2018-10-04T06:20:39.314Z,96976.03
2018-10-04T06:23:09.303Z,96977.53
2018-10-04T06:25:39.083Z,96967.59
2018-10-04T06:28:08.834Z,96972.17
2018-10-04T06:30:38.598Z,96982.59
2018-10-04T06:33:08.352Z,96979.68
2018-10-04T06:35:38.142Z,96980.95
2018-10-04T06:38:07.889Z,96980.33
2018-10-04T06:40:37.633Z,96982.87
2018-10-04T06:43:07.451Z,96983.16
2018-10-04T06:45:37.255Z,96983.81
2018-10-04T06:48:07.275Z,96992.34
2018-10-04T06:50:37.115Z,96988.27
2018-10-04T06:53:06.897Z,96989.81
2018-10-04T06:55:36.675Z,96992.11
2018-10-04T06:58:06.452Z,96991.63
2018-10-04T07:00:36.438Z,96995.91
2018-10-04T07:03:06.593Z,97003.87
2018-10-04T07:05:36.369Z,96999.84
2018-10-04T07:08:06.374Z,96996.00
2018-10-04T07:10:36.331Z,96992.20
2018-10-04T07:13:06.500Z,96998.86
2018-10-04T07:15:36.305Z,96993.14
2018-10-04T07:18:06.305Z,96991.52
2018-10-04T07:20:36.288Z,96992.88
2018-10-04T07:23:06.295Z,96988.09
2018-10-04T07:25:36.120Z,96985.59
2018-10-04T07:28:06.048Z,96978.69
2018-10-04T07:30:35.847Z,96980.78
2018-10-04T07:33:05.702Z,96985.64
2018-10-04T07:35:35.470Z,96975.75
2018-10-04T07:38:05.272Z,96980.13
2018-10-04T07:40:35.084Z,96982.70
2018-10-04T07:43:04.870Z,96973.83
2018-10-04T07:45:34.707Z,96974.95
2018-10-04T07:48:04.717Z,96987.94
2018-10-04T07:50:34.545Z,96979.89
2018-10-04T07:53:04.350Z,96978.08
2018-10-04T07:55:34.133Z,96979.02
2018-10-04T07:58:03.946Z,96981.30
2018-10-04T08:00:33.820Z,96980.30
2018-10-04T08:03:03.654Z,96972.98
2018-10-04T08:05:33.470Z,96981.92
2018-10-04T08:08:03.280Z,96984.51
2018-10-04T08:10:33.038Z,96981.78
2018-10-04T08:13:02.846Z,96982.77
2018-10-04T08:15:32.731Z,96985.97
2018-10-04T08:18:02.668Z,96980.81
2018-10-04T08:20:32.524Z,96991.17
2018-10-04T08:23:02.339Z,96979.31
2018-10-04T08:25:32.164Z,96989.72
2018-10-04T08:28:01.950Z,96988.83
2018-10-04T08:30:31.730Z,96974.61
2018-10-04T08:33:01.578Z,96984.03
2018-10-04T08:35:31.417Z,96977.52
2018-10-04T08:38:01.264Z,96977.81
2018-10-04T08:40:31.066Z,96987.27
2018-10-04T08:43:00.857Z,96985.52
2018-10-04T08:45:31.086Z,96980.19
2018-10-04T08:48:00.933Z,96978.53
2018-10-04T08:50:31.008Z,96975.06
2018-10-04T08:53:00.883Z,96986.66
2018-10-04T08:55:37.619Z,96982.98
2018-10-04T08:58:07.689Z,96979.09
2018-10-04T09:00:37.538Z,96976.62
2018-10-04T09:03:07.658Z,96978.04
2018-10-04T09:05:37.489Z,96978.72
2018-10-04T09:08:07.376Z,96975.34
2018-10-04T09:10:37.203Z,96975.69
2018-10-04T09:13:07.358Z,96974.93
2018-10-04T09:15:37.284Z,96973.81
2018-10-04T09:18:07.130Z,96964.95
2018-10-04T09:20:37.006Z,96972.02
2018-10-04T09:23:06.905Z,96962.71
2018-10-04T09:25:37.060Z,96969.19
2018-10-04T09:28:10.981Z,96968.44
2018-10-04T09:30:45.971Z,96958.42
2018-10-04T09:33:15.788Z,96952.42
2018-10-04T09:35:45.723Z,96953.82
2018-10-04T09:38:15.557Z,96954.57
2018-10-04T09:40:45.388Z,96950.67
2018-10-04T09:43:15.503Z,96946.67
2018-10-04T09:45:45.771Z,96945.64
2018-10-04T09:48:15.673Z,96945.15
2018-10-04T09:50:45.731Z,96941.22
2018-10-04T09:53:15.570Z,96939.27
2018-10-04T09:55:50.695Z,96947.70
2018-10-04T09:58:20.469Z,96942.19
2018-10-04T10:00:55.548Z,96924.34
2018-10-04T10:03:25.348Z,96926.92
2018-10-04T10:05:55.214Z,96923.41
2018-10-04T10:08:24.990Z,96918.50
2018-10-04T10:10:54.804Z,96927.47
2018-10-04T10:13:24.749Z,96914.52
2018-10-04T10:15:54.553Z,96912.97
2018-10-04T10:18:24.446Z,96919.09
2018-10-04T10:20:54.262Z,96914.78
2018-10-04T10:23:24.286Z,96915.18
2018-10-04T10:25:54.246Z,96911.81
2018-10-04T10:28:24.050Z,96908.65
2018-10-04T10:30:53.854Z,96913.73
2018-10-04T10:33:23.720Z,96913.87
2018-10-04T10:35:53.539Z,96903.09
2018-10-04T10:38:23.372Z,96900.31
2018-10-04T10:40:53.456Z,96897.73
2018-10-04T10:43:23.286Z,96901.83
2018-10-04T10:45:53.259Z,96904.58
2018-10-04T10:48:23.454Z,96893.95
2018-10-04T10:50:53.590Z,96899.66
2018-10-04T10:53:23.521Z,96882.55
2018-10-04T10:55:53.477Z,96889.47
2018-10-04T10:58:23.339Z,96896.38
2018-10-04T11:00:53.180Z,96887.70
2018-10-04T11:03:22.907Z,96881.92
2018-10-04T11:05:52.672Z,96872.65
2018-10-04T11:08:22.512Z,96876.77
2018-10-04T11:10:52.470Z,96874.31
2018-10-04T11:13:22.425Z,96875.91
2018-10-04T11:15:52.223Z,96876.81
2018-10-04T11:18:22.122Z,96856.02
2018-10-04T11:20:52.005Z,96864.47
2018-10-04T11:23:21.815Z,96874.06
2018-10-04T11:25:51.665Z,96866.68
2018-10-04T11:28:21.485Z,96866.00
2018-10-04T11:30:51.321Z,96849.48
2018-10-04T11:33:21.161Z,96837.37
2018-10-04T11:35:50.959Z,96842.78
2018-10-04T11:38:20.821Z,96838.48
2018-10-04T11:40:50.754Z,96830.52
2018-10-04T11:43:23.291Z,96829.30
2018-10-04T11:45:53.369Z,96828.40
2018-10-04T11:48:26.543Z,96823.09
2018-10-04T11:50:56.545Z,96821.38
2018-10-04T11:53:26.524Z,96820.67
2018-10-04T11:55:56.382Z,96812.95
2018-10-04T11:58:26.203Z,96813.81
2018-10-04T12:00:56.093Z,96817.13
2018-10-04T12:03:26.068Z,96809.95
2018-10-04T12:05:55.989Z,96816.90
2018-10-04T12:08:25.834Z,96807.75
2018-10-04T12:10:55.648Z,96812.12
2018-10-04T12:13:25.437Z,96797.48
2018-10-04T12:15:55.425Z,96797.40
2018-10-04T12:18:25.264Z,96796.78
2018-10-04T12:20:55.347Z,96785.99
2018-10-04T12:23:25.139Z,96791.08
2018-10-04T12:25:54.910Z,96802.05
2018-10-04T12:28:24.840Z,96774.46
2018-10-04T12:30:54.709Z,96792.41
2018-10-04T12:33:24.681Z,96776.89
2018-10-04T12:35:54.532Z,96785.92
2018-10-04T12:38:24.322Z,96783.34
2018-10-04T12:40:54.261Z,96790.94
2018-10-04T12:43:24.103Z,96774.04
2018-10-04T12:45:54.205Z,96779.14
2018-10-04T12:48:24.087Z,96774.84
2018-10-04T12:50:54.100Z,96775.30
2018-10-04T12:53:23.896Z,96774.94
2018-10-04T12:55:53.695Z,96772.53
2018-10-04T12:58:23.639Z,96772.92
2018-10-04T13:00:53.411Z,96773.56
2018-10-04T13:03:23.426Z,96774.52
2018-10-04T13:05:53.233Z,96774.28
2018-10-04T13:08:23.105Z,96772.20
2018-10-04T13:10:53.147Z,96767.02
2018-10-04T13:13:23.065Z,96774.06
2018-10-04T13:15:52.950Z,96767.32
2018-10-04T13:18:22.765Z,96777.42
2018-10-04T13:20:52.733Z,96769.78
2018-10-04T13:23:22.776Z,96770.32
2018-10-04T13:25:52.624Z,96769.78
2018-10-04T13:28:22.450Z,96770.08
2018-10-04T13:30:52.334Z,96756.89
2018-10-04T13:33:22.157Z,96760.98
2018-10-04T13:35:52.086Z,96761.41
2018-10-04T13:38:21.851Z,96759.05
2018-10-04T13:40:51.714Z,96767.58
2018-10-04T13:43:21.642Z,96749.88
2018-10-04T13:45:51.551Z,96747.55
2018-10-04T13:48:21.354Z,96751.27
2018-10-04T13:50:51.147Z,96753.80
2018-10-04T13:53:21.026Z,96752.41
2018-10-04T13:55:50.916Z,96746.83
2018-10-04T13:58:20.786Z,96744.02
2018-10-04T14:00:50.597Z,96764.80
2018-10-04T14:03:20.526Z,96747.95
2018-10-04T14:05:50.396Z,96740.48
2018-10-04T14:08:21.069Z,96740.64
2018-10-04T14:10:50.857Z,96740.11
2018-10-04T14:13:20.679Z,96744.25
2018-10-04T14:15:50.916Z,96740.77
2018-10-04T14:18:20.731Z,96735.12
2018-10-04T14:20:50.583Z,96738.31
2018-10-04T14:23:20.405Z,96739.91
2018-10-04T14:25:50.543Z,96746.27
2018-10-04T14:28:20.488Z,96727.93
2018-10-04T14:30:50.504Z,96726.20
2018-10-04T14:33:20.275Z,96730.83
2018-10-04T14:35:50.125Z,96717.03
2018-10-04T14:38:19.937Z,96725.19
2018-10-04T14:40:49.705Z,96725.84
2018-10-04T14:43:19.550Z,96719.01
2018-10-04T14:45:49.446Z,96715.47
2018-10-04T14:48:19.476Z,96712.66
2018-10-04T14:50:49.247Z,96720.39
2018-10-04T14:53:19.445Z,96714.57
2018-10-04T14:55:49.319Z,96714.57
2018-10-04T14:58:19.129Z,96718.30
2018-10-04T15:00:48.898Z,96715.90
2018-10-04T15:03:18.712Z,96724.58
2018-10-04T15:05:48.688Z,96712.55
2018-10-04T15:08:18.477Z,96709.76
2018-10-04T15:10:48.331Z,96718.71
2018-10-04T15:13:18.108Z,96704.44
2018-10-04T15:15:47.923Z,96714.11
2018-10-04T15:18:17.764Z,96705.70
2018-10-04T15:20:47.562Z,96712.05
2018-10-04T15:23:17.356Z,96712.34
2018-10-04T15:25:47.182Z,96715.84
2018-10-04T15:28:16.960Z,96705.52
2018-10-04T15:30:46.740Z,96701.91
2018-10-04T15:33:16.716Z,96708.64
2018-10-04T15:35:46.656Z,96709.37
2018-10-04T15:38:16.520Z,96705.23
2018-10-04T15:40:46.360Z,96711.44
2018-10-04T15:43:16.180Z,96706.17
2018-10-04T15:45:45.951Z,96707.23
2018-10-04T15:48:15.871Z,96707.08
2018-10-04T15:50:45.632Z,96701.80
2018-10-04T15:53:15.403Z,96707.95
2018-10-04T15:55:45.166Z,96711.28
2018-10-04T15:58:14.985Z,96704.86
2018-10-04T16:00:45.027Z,96701.60
2018-10-04T16:03:14.839Z,96709.32
2018-10-04T16:05:44.695Z,96713.02
2018-10-04T16:08:14.477Z,96706.67
2018-10-04T16:10:44.470Z,96720.32
2018-10-04T16:13:14.499Z,96710.43
2018-10-04T16:15:49.323Z,96711.02
2018-10-04T16:18:19.353Z,96712.14
2018-10-04T16:20:49.131Z,96712.80
2018-10-04T16:23:18.949Z,96712.05
2018-10-04T16:25:48.745Z,96717.66
2018-10-04T16:28:18.586Z,96709.86
2018-10-04T16:30:48.448Z,96709.59
2018-10-04T16:33:18.731Z,96719.70
2018-10-04T16:35:48.531Z,96715.91
2018-10-04T16:38:18.475Z,96724.05
2018-10-04T16:40:48.438Z,96715.50
2018-10-04T16:43:18.312Z,96720.41
2018-10-04T16:45:48.135Z,96721.86
2018-10-04T16:48:17.943Z,96727.86
2018-10-04T16:50:47.791Z,96723.42
2018-10-04T16:53:17.591Z,96728.63
2018-10-04T16:55:47.568Z,96721.76
2018-10-04T16:58:17.393Z,96721.16
2018-10-04T17:00:47.376Z,96720.17
2018-10-04T17:03:17.205Z,96724.37
2018-10-04T17:05:47.221Z,96728.94
2018-10-04T17:08:17.036Z,96725.66
2018-10-04T17:10:46.838Z,96729.05
2018-10-04T17:13:16.721Z,96728.75
2018-10-04T17:15:46.619Z,96727.61
2018-10-04T17:18:16.484Z,96733.52
2018-10-04T17:20:46.367Z,96733.59
2018-10-04T17:23:16.157Z,96739.86
2018-10-04T17:25:45.976Z,96735.38
2018-10-04T17:28:15.816Z,96737.21
2018-10-04T17:30:45.662Z,96738.80
2018-10-04T17:33:15.482Z,96739.02
2018-10-04T17:35:45.425Z,96734.94
2018-10-04T17:38:15.396Z,96729.83
2018-10-04T17:40:45.165Z,96735.14
2018-10-04T17:43:15.212Z,96737.13
2018-10-04T17:45:45.024Z,96736.95
2018-10-04T17:48:14.978Z,96728.32
2018-10-04T17:50:44.763Z,96728.12
2018-10-04T17:53:14.547Z,96729.11
2018-10-04T17:55:44.350Z,96731.47
2018-10-04T17:58:14.190Z,96728.50
2018-10-04T18:00:44.261Z,96733.80
2018-10-04T18:03:14.102Z,96737.73
2018-10-04T18:05:43.941Z,96741.06
2018-10-04T18:08:13.770Z,96744.20
2018-10-04T18:10:45.344Z,96740.70
2018-10-04T18:13:15.262Z,96738.36
2018-10-04T18:15:45.060Z,96752.86
2018-10-04T18:18:14.866Z,96739.16
2018-10-04T18:20:44.662Z,96749.33
2018-10-04T18:23:14.436Z,96748.55
2018-10-04T18:25:44.242Z,96755.78
2018-10-04T18:28:14.065Z,96749.53
2018-10-04T18:30:43.865Z,96755.00
2018-10-04T18:33:13.692Z,96750.70
2018-10-04T18:35:43.690Z,96753.06
2018-10-04T18:38:13.546Z,96753.63
2018-10-04T18:40:43.374Z,96755.77
2018-10-04T18:43:13.244Z,96748.94
2018-10-04T18:45:43.083Z,96751.30
2018-10-04T18:48:13.392Z,96747.56
2018-10-04T18:50:43.208Z,96748.75
2018-10-04T18:53:13.074Z,96747.58
2018-10-04T18:55:43.074Z,96750.11
2018-10-04T18:58:12.908Z,96749.70
2018-10-04T19:00:42.862Z,96747.16
2018-10-04T19:03:12.668Z,96744.38
2018-10-04T19:05:42.546Z,96744.92
2018-10-04T19:08:12.577Z,96741.83
2018-10-04T19:11:21.896Z,96738.83
2018-10-04T19:13:51.728Z,96738.63
2018-10-04T19:16:21.598Z,96743.89
2018-10-04T19:18:51.432Z,96744.71
2018-10-04T19:21:21.305Z,96746.33
2018-10-04T19:23:52.012Z,96749.61
2018-10-04T19:26:21.870Z,96746.81
2018-10-04T19:28:51.642Z,96741.28
2018-10-04T19:31:21.512Z,96743.27
2018-10-04T19:33:51.417Z,96740.88
2018-10-04T19:36:21.255Z,96741.05
2018-10-04T19:38:51.282Z,96742.95
2018-10-04T19:41:21.195Z,96744.30
2018-10-04T19:43:51.066Z,96743.11
2018-10-04T19:46:20.933Z,96736.86
2018-10-04T19:48:50.708Z,96741.32
2018-10-04T19:51:20.537Z,96735.64
2018-10-04T19:53:50.308Z,96737.27
2018-10-04T19:56:20.116Z,96731.06
2018-10-04T19:58:50.068Z,96732.64
2018-10-04T20:01:19.892Z,96737.94
2018-10-04T20:03:49.856Z,96744.97
2018-10-04T20:06:19.795Z,96746.55
2018-10-04T20:08:49.654Z,96744.89
2018-10-04T20:14:55.842Z,96732.78
2018-10-04T20:17:25.674Z,96732.75
2018-10-04T20:19:55.482Z,96728.56
2018-10-04T20:22:25.302Z,96734.95
2018-10-04T20:24:55.340Z,96734.52
2018-10-04T20:27:25.121Z,96729.36
2018-10-04T20:29:54.960Z,96731.09
2018-10-04T20:32:24.754Z,96733.98
2018-10-04T20:34:54.640Z,96739.53
2018-10-04T20:37:24.876Z,96731.09
2018-10-04T20:39:54.742Z,96737.91
2018-10-04T20:42:24.649Z,96737.80
2018-10-04T20:44:54.650Z,96740.11
2018-10-04T20:47:25.102Z,96734.31
2018-10-04T20:49:55.434Z,96732.84
2018-10-04T20:52:25.618Z,96735.79
2018-10-04T20:54:55.856Z,96735.58
2018-10-04T20:57:25.746Z,96733.78
2018-10-04T20:59:55.977Z,96732.95
2018-10-04T21:02:25.959Z,96737.51
2018-10-04T21:04:55.788Z,96732.02
2018-10-04T21:07:25.695Z,96729.08
2018-10-04T21:09:55.589Z,96727.13
2018-10-04T21:16:01.847Z,96728.53
2018-10-04T21:18:31.723Z,96738.84
2018-10-04T21:21:01.626Z,96734.88
2018-10-04T21:23:31.549Z,96729.55
2018-10-04T21:26:01.392Z,96732.81
2018-10-04T21:28:32.153Z,96729.59
2018-10-04T21:31:01.937Z,96738.34
2018-10-04T21:33:31.767Z,96736.37
2018-10-04T21:36:01.655Z,96733.86
2018-10-04T21:38:31.483Z,96738.44
2018-10-04T21:41:01.419Z,96736.76
2018-10-04T21:43:31.255Z,96738.06
2018-10-04T21:46:01.172Z,96735.47
2018-10-04T21:48:31.021Z,96733.09
2018-10-04T21:51:00.809Z,96735.83
2018-10-04T21:53:30.850Z,96733.99
2018-10-04T21:56:00.650Z,96735.48
2018-10-04T21:58:30.379Z,96729.98
2018-10-04T22:01:03.965Z,96730.53
2018-10-04T22:03:33.787Z,96729.41
2018-10-04T22:06:03.699Z,96721.91
2018-10-04T22:08:33.477Z,96723.39
2018-10-04T22:11:03.353Z,96715.05
2018-10-04T22:13:33.075Z,96717.81
2018-10-04T22:16:02.797Z,96720.33
2018-10-04T22:18:32.702Z,96722.27
2018-10-04T22:21:02.919Z,96724.97
2018-10-04T22:23:32.983Z,96721.23
2018-10-04T22:26:03.338Z,96717.36
2018-10-04T22:28:33.251Z,96721.00
2018-10-04T22:31:03.049Z,96718.49
2018-10-04T22:33:32.802Z,96717.70
2018-10-04T22:36:02.931Z,96719.02
2018-10-04T22:38:32.691Z,96725.04
2018-10-04T22:41:02.502Z,96719.02
2018-10-04T22:43:32.237Z,96719.56
2018-10-04T22:46:01.993Z,96718.03
2018-10-04T22:48:31.751Z,96717.94
2018-10-04T22:51:01.480Z,96716.22
2018-10-04T22:53:31.407Z,96719.52
2018-10-04T22:56:01.460Z,96716.91
2018-10-04T22:58:31.302Z,96719.61
2018-10-04T23:01:01.041Z,96714.97
2018-10-04T23:03:30.889Z,96714.90
2018-10-04T23:06:00.686Z,96715.82
2018-10-04T23:08:30.520Z,96704.47
2018-10-04T23:11:00.386Z,96703.83
2018-10-04T23:13:30.583Z,96701.34
2018-10-04T23:16:00.598Z,96705.98
2018-10-04T23:18:30.780Z,96707.30
2018-10-04T23:21:00.598Z,96706.50
2018-10-04T23:23:30.524Z,96709.06
2018-10-04T23:26:00.419Z,96711.00
2018-10-04T23:28:30.262Z,96705.88
2018-10-04T23:31:00.282Z,96709.61
2018-10-04T23:33:30.161Z,96707.41
2018-10-04T23:36:00.077Z,96709.51
2018-10-04T23:38:29.929Z,96711.36
2018-10-04T23:40:59.848Z,96716.59
2018-10-04T23:43:29.908Z,96719.42
2018-10-04T23:45:59.879Z,96717.48
2018-10-04T23:48:29.741Z,96722.93
2018-10-04T23:50:59.680Z,96717.07
2018-10-04T23:53:29.784Z,96723.70
2018-10-04T23:55:59.820Z,96720.68
2018-10-04T23:58:30.330Z,96727.19
